createdAt,value
2023-03-15T00:01:16.110Z,1.20
2023-03-15T00:03:43.892Z,1.20
2023-03-15T00:06:11.825Z,1.20
2023-03-15T00:08:39.110Z,1.20
2023-03-15T00:11:06.552Z,1.20
2023-03-15T00:13:34.323Z,1.20
2023-03-15T00:16:06.341Z,1.30
2023-03-15T00:18:33.455Z,1.30
2023-03-15T00:21:00.620Z,1.30
2023-03-15T00:23:27.761Z,1.30
2023-03-15T00:25:55.245Z,1.30
2023-03-15T00:28:22.360Z,1.30
2023-03-15T00:30:49.392Z,1.30
2023-03-15T00:33:17.291Z,1.30
2023-03-15T00:35:45.682Z,1.30
2023-03-15T00:38:14.245Z,1.20
2023-03-15T00:40:41.530Z,1.20
2023-03-15T00:43:08.611Z,1.20
2023-03-15T00:45:35.850Z,1.20
2023-03-15T00:48:02.926Z,1.20
2023-03-15T00:50:30.026Z,1.20
2023-03-15T00:52:57.088Z,1.20
2023-03-15T00:55:24.244Z,1.20
2023-03-15T00:57:51.430Z,1.20
2023-03-15T01:00:25.061Z,1.20
2023-03-15T01:02:53.858Z,1.20
2023-03-15T01:05:21.721Z,1.20
2023-03-15T01:07:49.444Z,1.20
2023-03-15T01:10:17.215Z,1.20
2023-03-15T01:12:44.886Z,1.20
2023-03-15T01:15:14.965Z,1.20
2023-03-15T01:17:43.026Z,1.20
2023-03-15T01:20:14.409Z,1.20
2023-03-15T01:22:41.654Z,1.20
2023-03-15T01:25:09.571Z,1.20
2023-03-15T01:27:36.810Z,1.20
2023-03-15T01:30:04.603Z,1.20
2023-03-15T01:32:31.757Z,1.20
2023-03-15T01:34:58.776Z,1.20
2023-03-15T01:37:26.170Z,1.10
2023-03-15T01:39:53.315Z,1.10
2023-03-15T01:42:20.758Z,1.10
2023-03-15T01:44:53.550Z,1.10
2023-03-15T01:47:21.308Z,1.00
2023-03-15T01:49:55.129Z,1.00
2023-03-15T01:52:29.274Z,1.00
2023-03-15T01:55:05.597Z,1.00
2023-03-15T01:57:44.175Z,0.90
2023-03-15T02:00:14.710Z,0.90
2023-03-15T02:02:52.865Z,0.90
2023-03-15T02:05:24.343Z,0.80
2023-03-15T02:07:54.723Z,0.80
2023-03-15T02:10:31.358Z,0.80
2023-03-15T02:12:59.737Z,0.70
2023-03-15T02:15:27.196Z,0.70
2023-03-15T02:17:54.293Z,0.70
2023-03-15T02:20:35.908Z,0.70
2023-03-15T02:23:06.042Z,0.70
2023-03-15T02:26:03.794Z,0.60
2023-03-15T02:28:32.354Z,0.60
2023-03-15T02:30:59.936Z,0.50
2023-03-15T02:33:49.047Z,0.50
2023-03-15T02:36:28.126Z,0.50
2023-03-15T02:38:56.728Z,0.50
2023-03-15T02:41:39.967Z,0.50
2023-03-15T02:44:18.646Z,0.40
2023-03-15T02:46:48.529Z,0.40
2023-03-15T02:49:17.325Z,0.40
2023-03-15T02:51:44.401Z,0.40
2023-03-15T02:54:11.466Z,0.40
2023-03-15T02:56:38.661Z,0.40
2023-03-15T02:59:05.790Z,0.40
2023-03-15T03:01:32.912Z,0.40
2023-03-15T03:04:00.014Z,0.30
2023-03-15T03:06:27.090Z,0.30
2023-03-15T03:08:54.163Z,0.30
2023-03-15T03:11:21.533Z,0.30
2023-03-15T03:13:48.606Z,0.30
2023-03-15T03:16:15.765Z,0.20
2023-03-15T03:18:42.839Z,0.20
2023-03-15T03:21:09.957Z,0.20
2023-03-15T03:23:37.245Z,0.20
2023-03-15T03:26:04.692Z,0.20
2023-03-15T03:28:33.754Z,0.20
2023-03-15T03:31:01.109Z,0.20
2023-03-15T03:33:28.265Z,0.20
2023-03-15T03:36:02.488Z,0.20
2023-03-15T03:38:29.596Z,0.10
2023-03-15T03:40:56.702Z,0.20
2023-03-15T03:43:23.729Z,0.20
2023-03-15T03:45:50.868Z,0.10
2023-03-15T03:48:17.964Z,0.10
2023-03-15T03:50:45.074Z,0.10
2023-03-15T03:53:12.067Z,0.10
2023-03-15T03:55:39.135Z,0.10
2023-03-15T03:58:06.139Z,0.10
2023-03-15T04:00:33.167Z,0.10
2023-03-15T04:03:02.128Z,0.10
2023-03-15T04:05:30.057Z,0.10
2023-03-15T04:07:57.140Z,0.10
2023-03-15T04:10:27.011Z,0.10
2023-03-15T04:12:55.509Z,0.10
2023-03-15T04:15:23.057Z,0.10
2023-03-15T04:17:56.134Z,0.10
2023-03-15T04:20:24.346Z,0.20
2023-03-15T04:22:51.418Z,0.10
2023-03-15T04:25:22.255Z,0.10
2023-03-15T04:27:58.842Z,0.10
2023-03-15T04:30:29.913Z,0.10
2023-03-15T04:33:03.679Z,0.10
2023-03-15T04:35:33.072Z,0.10
2023-03-15T04:38:00.598Z,0.10
2023-03-15T04:40:28.109Z,0.10
2023-03-15T04:42:55.671Z,0.10
2023-03-15T04:45:24.341Z,0.10
2023-03-15T04:47:52.592Z,0.10
2023-03-15T04:50:21.008Z,0.10
2023-03-15T04:52:48.797Z,0.10
2023-03-15T04:55:16.058Z,0.10
2023-03-15T04:57:43.472Z,0.10
2023-03-15T05:00:13.066Z,0.10
2023-03-15T05:02:41.942Z,0.10
2023-03-15T05:05:10.511Z,0.10
2023-03-15T05:07:38.810Z,0.10
2023-03-15T05:10:08.390Z,0.20
2023-03-15T05:12:35.447Z,0.10
2023-03-15T05:15:02.702Z,0.10
2023-03-15T05:17:29.827Z,0.10
2023-03-15T05:19:57.940Z,0.10
2023-03-15T05:22:26.259Z,0.10
2023-03-15T05:24:56.331Z,0.10
2023-03-15T05:27:23.825Z,0.10
2023-03-15T05:29:51.524Z,0.10
2023-03-15T05:32:18.657Z,0.10
2023-03-15T05:34:45.671Z,0.10
2023-03-15T05:37:12.830Z,0.10
2023-03-15T05:39:41.834Z,0.10
2023-03-15T05:42:08.893Z,0.00
2023-03-15T05:44:37.117Z,0.00
2023-03-15T05:47:04.237Z,0.00
2023-03-15T05:49:31.335Z,0.00
2023-03-15T05:51:58.398Z,0.00
2023-03-15T05:54:25.532Z,0.00
2023-03-15T05:56:52.589Z,0.00
2023-03-15T05:59:19.626Z,0.10
2023-03-15T06:01:46.635Z,0.10
2023-03-15T06:04:13.778Z,0.10
2023-03-15T06:06:40.926Z,0.10
2023-03-15T06:09:09.175Z,0.10
2023-03-15T06:11:36.443Z,0.10
2023-03-15T06:14:03.740Z,0.10
2023-03-15T06:16:30.845Z,0.10
2023-03-15T06:18:57.960Z,0.10
2023-03-15T06:21:26.175Z,0.10
2023-03-15T06:23:53.274Z,0.10
2023-03-15T06:26:20.345Z,0.10
2023-03-15T06:28:47.491Z,0.10
2023-03-15T06:31:15.114Z,0.20
2023-03-15T06:33:42.311Z,0.20
2023-03-15T06:36:10.882Z,0.20
2023-03-15T06:38:37.994Z,0.30
2023-03-15T06:41:05.377Z,0.40
2023-03-15T06:43:32.512Z,0.40
2023-03-15T06:46:00.325Z,0.40
2023-03-15T06:48:28.350Z,0.40
2023-03-15T06:50:55.799Z,0.40
2023-03-15T06:53:22.884Z,0.50
2023-03-15T06:55:50.941Z,0.50
2023-03-15T06:58:18.273Z,0.60
2023-03-15T07:00:45.430Z,1.00
2023-03-15T07:03:12.527Z,1.10
2023-03-15T07:05:39.628Z,1.00
2023-03-15T07:08:07.393Z,0.90
2023-03-15T07:10:34.650Z,0.60
2023-03-15T07:13:01.774Z,0.60
2023-03-15T07:15:28.800Z,0.80
2023-03-15T07:17:55.848Z,0.90
2023-03-15T07:20:23.016Z,1.00
2023-03-15T07:22:50.081Z,1.00
2023-03-15T07:25:24.033Z,1.10
2023-03-15T07:27:51.653Z,1.30
2023-03-15T07:30:21.172Z,1.30
2023-03-15T07:32:48.691Z,1.30
2023-03-15T07:35:18.273Z,1.30
2023-03-15T07:37:45.795Z,1.40
2023-03-15T07:40:13.498Z,1.20
2023-03-15T07:42:41.159Z,1.30
2023-03-15T07:45:09.626Z,1.20
2023-03-15T07:47:36.686Z,1.30
2023-03-15T07:50:05.343Z,1.40
2023-03-15T07:52:32.410Z,1.40
2023-03-15T07:54:59.592Z,1.40
2023-03-15T07:57:28.800Z,1.40
2023-03-15T07:59:56.331Z,1.40
2023-03-15T08:02:23.488Z,1.40
2023-03-15T08:04:51.540Z,1.40
2023-03-15T08:07:18.808Z,1.40
2023-03-15T08:09:46.583Z,1.40
2023-03-15T08:12:13.825Z,1.40
2023-03-15T08:14:40.837Z,1.40
2023-03-15T08:17:13.217Z,1.50
2023-03-15T08:19:40.334Z,1.50
2023-03-15T08:22:08.103Z,1.80
2023-03-15T08:24:35.796Z,1.90
2023-03-15T08:27:05.143Z,2.00
2023-03-15T08:29:32.513Z,2.10
2023-03-15T08:31:59.748Z,2.20
2023-03-15T08:34:27.059Z,2.30
2023-03-15T08:36:54.168Z,2.30
2023-03-15T08:39:24.329Z,2.40
2023-03-15T08:41:51.664Z,2.40
2023-03-15T08:44:18.788Z,2.40
2023-03-15T08:46:45.928Z,2.30
2023-03-15T08:49:13.039Z,2.30
2023-03-15T08:51:40.182Z,2.20
2023-03-15T08:54:07.668Z,2.30
2023-03-15T08:56:35.214Z,2.60
2023-03-15T08:59:02.250Z,2.60
2023-03-15T09:01:30.438Z,2.80
2023-03-15T09:03:57.629Z,2.90
2023-03-15T09:06:25.749Z,3.40
2023-03-15T09:08:54.023Z,3.50
2023-03-15T09:11:22.424Z,3.50
2023-03-15T09:13:49.567Z,3.40
2023-03-15T09:16:17.372Z,3.10
2023-03-15T09:18:45.545Z,3.10
2023-03-15T09:21:12.615Z,3.40
2023-03-15T09:23:42.645Z,3.80
2023-03-15T09:26:09.738Z,3.70
2023-03-15T09:28:36.740Z,3.80
2023-03-15T09:31:07.724Z,3.80
2023-03-15T09:33:34.956Z,3.90
2023-03-15T09:36:02.244Z,4.10
2023-03-15T09:38:29.591Z,4.20
2023-03-15T09:40:59.467Z,4.50
2023-03-15T09:43:38.561Z,4.70
2023-03-15T09:46:26.372Z,4.50
2023-03-15T09:49:14.638Z,4.50
2023-03-15T09:51:52.158Z,4.70
2023-03-15T09:54:26.749Z,4.70
2023-03-15T09:57:14.933Z,4.60
2023-03-15T09:59:45.083Z,4.50
2023-03-15T10:02:25.782Z,4.40
2023-03-15T10:05:16.484Z,4.40
2023-03-15T10:07:44.018Z,4.50
2023-03-15T10:10:25.146Z,4.40
2023-03-15T10:13:24.598Z,4.50
2023-03-15T10:16:15.930Z,4.70
2023-03-15T10:19:14.029Z,4.80
2023-03-15T10:21:50.123Z,4.90
2023-03-15T10:24:41.215Z,4.70
2023-03-15T10:27:37.616Z,4.40
2023-03-15T10:30:40.730Z,4.60
2023-03-15T10:33:39.070Z,5.10
2023-03-15T10:36:17.341Z,5.30
2023-03-15T10:38:45.978Z,5.50
2023-03-15T10:41:29.084Z,5.40
2023-03-15T10:44:08.369Z,5.10
2023-03-15T10:46:36.480Z,5.20
2023-03-15T10:49:16.469Z,5.40
2023-03-15T10:51:48.553Z,5.20
2023-03-15T10:54:18.755Z,5.30
2023-03-15T10:56:51.858Z,5.30
2023-03-15T10:59:27.275Z,5.50
2023-03-15T11:02:14.549Z,6.10
2023-03-15T11:04:43.604Z,6.00
2023-03-15T11:07:13.648Z,6.00
2023-03-15T11:09:42.185Z,5.90
2023-03-15T11:12:29.584Z,5.90
2023-03-15T11:15:01.946Z,5.80
2023-03-15T11:17:33.385Z,5.70
2023-03-15T11:20:13.670Z,5.50
2023-03-15T11:22:41.155Z,5.10
2023-03-15T11:25:15.656Z,5.10
2023-03-15T11:27:44.532Z,5.10
2023-03-15T11:30:17.159Z,5.30
2023-03-15T11:32:46.636Z,5.20
2023-03-15T11:35:26.360Z,5.50
2023-03-15T11:38:15.240Z,5.70
2023-03-15T11:40:48.178Z,6.00
2023-03-15T11:43:45.397Z,6.40
2023-03-15T11:46:27.313Z,6.50
2023-03-15T11:49:40.136Z,7.10
2023-03-15T11:52:07.738Z,7.70
2023-03-15T11:54:34.832Z,7.80
2023-03-15T11:57:26.661Z,8.20
2023-03-15T12:00:00.157Z,8.30
2023-03-15T12:02:27.661Z,8.40
2023-03-15T12:04:57.108Z,8.60
2023-03-15T12:07:31.562Z,9.50
2023-03-15T12:10:04.494Z,9.50
2023-03-15T12:12:31.503Z,9.20
2023-03-15T12:15:19.644Z,8.80
2023-03-15T12:17:50.643Z,9.10
2023-03-15T12:20:20.516Z,9.70
2023-03-15T12:22:53.177Z,9.40
2023-03-15T12:25:45.621Z,10.00
2023-03-15T12:28:37.977Z,10.30
2023-03-15T12:31:09.305Z,10.20
2023-03-15T12:33:50.658Z,9.60
2023-03-15T12:36:36.811Z,9.10
2023-03-15T12:39:15.864Z,8.40
2023-03-15T12:41:44.051Z,8.10
2023-03-15T12:44:33.707Z,8.60
2023-03-15T12:47:05.625Z,9.00
2023-03-15T12:49:36.846Z,9.70
2023-03-15T12:52:26.512Z,9.80
2023-03-15T12:55:06.076Z,9.70
2023-03-15T12:58:00.332Z,9.70
2023-03-15T13:00:30.734Z,9.00
2023-03-15T13:03:16.545Z,9.50
2023-03-15T13:06:04.216Z,10.00
2023-03-15T13:08:43.588Z,9.50
2023-03-15T13:11:13.750Z,8.40
2023-03-15T13:13:40.880Z,7.70
2023-03-15T13:16:26.505Z,7.70
2023-03-15T13:19:15.185Z,7.00
2023-03-15T13:22:00.781Z,6.40
2023-03-15T13:24:42.674Z,5.90
2023-03-15T13:27:54.117Z,5.50
2023-03-15T13:30:41.214Z,5.20
2023-03-15T13:33:24.629Z,5.00
2023-03-15T13:35:56.548Z,4.80
2023-03-15T13:38:31.115Z,4.80
2023-03-15T13:41:02.054Z,5.00
2023-03-15T13:43:37.961Z,5.10
2023-03-15T13:46:05.643Z,5.60
2023-03-15T13:48:37.701Z,6.50
2023-03-15T13:51:09.640Z,6.40
2023-03-15T13:53:49.427Z,6.90
2023-03-15T13:56:21.065Z,7.20
2023-03-15T13:58:50.597Z,7.10
2023-03-15T14:01:18.342Z,7.30
2023-03-15T14:03:52.136Z,7.30
2023-03-15T14:06:25.862Z,7.20
2023-03-15T14:09:02.210Z,7.10
2023-03-15T14:11:35.064Z,7.20
2023-03-15T14:14:05.517Z,7.20
2023-03-15T14:17:01.090Z,7.20
2023-03-15T14:19:34.409Z,7.00
2023-03-15T14:22:15.597Z,6.40
2023-03-15T14:24:44.936Z,6.10
2023-03-15T14:27:21.193Z,6.40
2023-03-15T14:29:55.103Z,6.60
2023-03-15T14:32:32.637Z,6.70
2023-03-15T14:35:31.769Z,6.50
2023-03-15T14:38:23.865Z,6.40
2023-03-15T14:40:52.942Z,6.30
2023-03-15T14:43:23.889Z,6.70
2023-03-15T14:45:51.077Z,6.90
2023-03-15T14:48:29.703Z,7.00
2023-03-15T14:50:56.902Z,6.90
2023-03-15T14:53:29.178Z,6.80
2023-03-15T14:55:56.440Z,6.80
2023-03-15T14:58:23.650Z,6.90
2023-03-15T15:00:55.740Z,7.00
2023-03-15T15:03:38.518Z,7.10
2023-03-15T15:06:08.651Z,7.10
2023-03-15T15:08:40.178Z,7.10
2023-03-15T15:11:11.167Z,7.00
2023-03-15T15:13:40.431Z,7.00
2023-03-15T15:16:08.846Z,7.00
2023-03-15T15:18:37.276Z,6.90
2023-03-15T15:21:31.749Z,6.60
2023-03-15T15:24:03.199Z,6.40
2023-03-15T15:26:32.159Z,6.30
2023-03-15T15:29:01.015Z,6.20
2023-03-15T15:31:29.277Z,6.10
2023-03-15T15:33:58.418Z,6.10
2023-03-15T15:36:36.071Z,6.00
2023-03-15T15:39:07.264Z,5.80
2023-03-15T15:41:34.904Z,5.70
2023-03-15T15:44:02.104Z,5.70
2023-03-15T15:46:29.276Z,5.70
2023-03-15T15:48:56.400Z,5.70
2023-03-15T15:51:35.796Z,5.70
2023-03-15T15:54:03.147Z,5.70
2023-03-15T15:56:44.296Z,5.70
2023-03-15T15:59:15.095Z,5.70
2023-03-15T16:02:00.097Z,5.70
2023-03-15T16:04:28.536Z,5.70
2023-03-15T16:07:02.055Z,5.60
2023-03-15T16:09:30.928Z,5.60
2023-03-15T16:11:58.624Z,5.60
2023-03-15T16:14:25.850Z,5.60
2023-03-15T16:16:52.955Z,5.60
2023-03-15T16:19:20.068Z,5.50
2023-03-15T16:21:50.733Z,5.40
2023-03-15T16:24:29.320Z,5.40
2023-03-15T16:27:01.105Z,5.20
2023-03-15T16:29:38.071Z,5.10
2023-03-15T16:32:16.912Z,5.10
2023-03-15T16:34:46.903Z,5.00
2023-03-15T16:37:16.898Z,5.00
2023-03-15T16:39:47.269Z,4.90
2023-03-15T16:42:16.457Z,4.90
2023-03-15T16:44:43.941Z,4.80
2023-03-15T16:47:11.270Z,4.70
2023-03-15T16:49:38.425Z,4.70
2023-03-15T16:52:07.111Z,4.60
2023-03-15T16:54:41.415Z,4.60
2023-03-15T16:57:22.630Z,4.60
2023-03-15T16:59:50.407Z,4.60
2023-03-15T17:02:26.300Z,4.50
2023-03-15T17:04:53.417Z,4.50
2023-03-15T17:07:27.876Z,4.40
2023-03-15T17:09:55.317Z,4.30
2023-03-15T17:12:27.856Z,4.20
2023-03-15T17:14:57.834Z,4.10
2023-03-15T17:17:28.147Z,4.10
2023-03-15T17:19:55.290Z,4.00
2023-03-15T17:22:22.420Z,3.90
2023-03-15T17:24:49.765Z,3.80
2023-03-15T17:27:33.307Z,3.70
2023-03-15T17:30:00.685Z,3.60
2023-03-15T17:32:27.946Z,3.50
2023-03-15T17:34:59.174Z,3.40
2023-03-15T17:37:35.414Z,3.30
2023-03-15T17:40:12.296Z,3.20
2023-03-15T17:42:39.818Z,3.10
2023-03-15T17:45:20.930Z,2.90
2023-03-15T17:47:52.127Z,2.90
2023-03-15T17:50:19.978Z,2.90
2023-03-15T17:52:51.718Z,2.80
2023-03-15T17:55:21.692Z,2.80
2023-03-15T17:57:54.633Z,2.70
2023-03-15T18:00:24.178Z,2.70
2023-03-15T18:02:56.041Z,2.60
2023-03-15T18:05:28.073Z,2.60
2023-03-15T18:07:59.104Z,2.60
2023-03-15T18:10:33.563Z,2.60
2023-03-15T18:13:00.701Z,2.60
2023-03-15T18:15:28.119Z,2.50
2023-03-15T18:17:56.474Z,2.40
2023-03-15T18:20:26.505Z,2.40
2023-03-15T18:22:53.854Z,2.30
2023-03-15T18:25:26.724Z,2.20
2023-03-15T18:27:54.983Z,2.20
2023-03-15T18:30:25.293Z,2.20
2023-03-15T18:32:53.962Z,2.20
2023-03-15T18:35:24.593Z,2.20
2023-03-15T18:37:54.158Z,2.20
2023-03-15T18:40:21.894Z,2.20
2023-03-15T18:42:48.981Z,2.20
2023-03-15T18:45:21.980Z,2.10
2023-03-15T18:47:49.366Z,2.10
2023-03-15T18:50:17.331Z,2.00
2023-03-15T18:52:45.346Z,2.00
2023-03-15T18:55:14.768Z,1.90
2023-03-15T18:57:43.178Z,2.00
2023-03-15T19:00:14.201Z,1.90
2023-03-15T19:02:46.178Z,1.90
2023-03-15T19:05:14.781Z,2.00
2023-03-15T19:07:42.423Z,2.00
2023-03-15T19:10:13.946Z,1.90
2023-03-15T19:12:42.727Z,1.90
2023-03-15T19:15:11.925Z,1.80
2023-03-15T19:17:39.395Z,1.80
2023-03-15T19:20:08.447Z,1.80
2023-03-15T19:22:35.753Z,1.80
2023-03-15T19:25:03.182Z,1.80
2023-03-15T19:27:32.994Z,1.90
2023-03-15T19:29:59.983Z,1.90
2023-03-15T19:32:29.581Z,1.90
2023-03-15T19:34:58.546Z,1.90
2023-03-15T19:37:25.553Z,2.00
2023-03-15T19:39:52.781Z,2.00
2023-03-15T19:42:20.185Z,2.00
2023-03-15T19:44:53.035Z,2.10
2023-03-15T19:47:20.743Z,2.10
2023-03-15T19:49:47.894Z,2.10
2023-03-15T19:52:16.123Z,2.10
2023-03-15T19:54:43.170Z,2.10
2023-03-15T19:57:10.454Z,2.10
2023-03-15T19:59:41.213Z,2.10
2023-03-15T20:02:11.916Z,2.00
2023-03-15T20:04:43.454Z,2.00
2023-03-15T20:07:11.318Z,2.00
2023-03-15T20:09:42.515Z,2.00
2023-03-15T20:12:11.837Z,1.90
2023-03-15T20:14:39.476Z,1.90
2023-03-15T20:17:09.901Z,1.90
2023-03-15T20:19:38.286Z,1.80
2023-03-15T20:22:06.598Z,1.70
2023-03-15T20:24:35.318Z,1.70
2023-03-15T20:27:02.581Z,1.60
2023-03-15T20:29:35.978Z,1.50
2023-03-15T20:32:05.318Z,1.30
2023-03-15T20:34:34.430Z,1.30
2023-03-15T20:37:02.147Z,1.20
2023-03-15T20:39:32.339Z,1.20
2023-03-15T20:42:01.541Z,1.10
2023-03-15T20:44:29.196Z,1.00
2023-03-15T20:46:58.964Z,1.00
2023-03-15T20:49:28.904Z,0.90
2023-03-15T20:51:57.473Z,0.90
2023-03-15T20:54:24.528Z,0.90
2023-03-15T20:56:52.435Z,1.00
2023-03-15T20:59:19.457Z,0.90
2023-03-15T21:01:47.461Z,0.80
2023-03-15T21:04:14.939Z,0.80
2023-03-15T21:06:42.044Z,0.70
2023-03-15T21:09:12.039Z,0.70
2023-03-15T21:11:39.132Z,0.70
2023-03-15T21:14:07.150Z,0.60
2023-03-15T21:16:34.245Z,0.70
2023-03-15T21:19:01.728Z,0.70
2023-03-15T21:21:29.072Z,0.60
2023-03-15T21:23:56.167Z,0.70
2023-03-15T21:26:23.189Z,0.70
2023-03-15T21:28:50.805Z,0.80
2023-03-15T21:31:17.922Z,0.80
2023-03-15T21:33:45.039Z,0.70
2023-03-15T21:36:12.125Z,0.60
2023-03-15T21:38:40.316Z,0.60
2023-03-15T21:41:09.740Z,0.60
2023-03-15T21:43:37.651Z,0.60
2023-03-15T21:46:07.591Z,0.70
2023-03-15T21:48:37.069Z,0.70
2023-03-15T21:51:05.044Z,0.70
2023-03-15T21:53:34.190Z,0.70
2023-03-15T21:56:02.620Z,0.70
2023-03-15T21:58:30.164Z,0.80
2023-03-15T22:01:01.987Z,0.70
2023-03-15T22:03:29.658Z,0.80
2023-03-15T22:05:57.483Z,0.80
2023-03-15T22:08:24.786Z,0.90
2023-03-15T22:10:56.556Z,0.90
2023-03-15T22:13:24.201Z,0.90
2023-03-15T22:15:52.485Z,0.90
2023-03-15T22:18:19.813Z,0.80
2023-03-15T22:20:49.665Z,0.80
2023-03-15T22:23:18.457Z,0.90
2023-03-15T22:25:45.664Z,0.80
2023-03-15T22:28:13.052Z,0.80
2023-03-15T22:30:43.260Z,0.80
2023-03-15T22:33:10.364Z,0.70
2023-03-15T22:35:37.513Z,0.70
2023-03-15T22:38:10.306Z,0.60
2023-03-15T22:40:41.494Z,0.60
2023-03-15T22:43:09.389Z,0.70
2023-03-15T22:45:36.816Z,0.70
2023-03-15T22:48:04.057Z,0.70
2023-03-15T22:50:31.293Z,0.60
2023-03-15T22:52:58.390Z,0.70
2023-03-15T22:55:25.844Z,0.60
2023-03-15T22:57:54.195Z,0.60
2023-03-15T23:00:22.606Z,0.60
